createdAt,value
2023-04-04T00:01:05.025Z,91.90
2023-04-04T00:03:33.190Z,94.20
2023-04-04T00:06:00.869Z,95.60
2023-04-04T00:08:28.227Z,97.20
2023-04-04T00:11:00.146Z,96.40
2023-04-04T00:13:28.183Z,97.80
2023-04-04T00:15:55.960Z,96.50
2023-04-04T00:18:23.422Z,97.10
2023-04-04T00:20:51.017Z,97.10
2023-04-04T00:25:55.477Z,90.60
2023-04-04T00:28:22.852Z,99.90
2023-04-04T00:35:48.109Z,92.80
2023-04-04T00:43:16.571Z,90.40
2023-04-04T00:45:44.199Z,91.00
2023-04-04T00:48:11.949Z,91.40
2023-04-04T00:50:39.500Z,91.30
2023-04-04T00:53:07.586Z,92.90
2023-04-04T00:55:40.840Z,92.80
2023-04-04T00:58:09.055Z,94.10
2023-04-04T01:00:37.914Z,97.80
2023-04-04T01:03:07.782Z,97.80
2023-04-04T01:05:35.679Z,99.70
2023-04-04T01:08:03.562Z,99.80
2023-04-04T01:10:31.787Z,97.60
2023-04-04T01:13:01.725Z,98.70
2023-04-04T01:15:31.904Z,99.90
2023-04-04T01:18:02.728Z,99.90
2023-04-04T01:20:33.366Z,95.30
2023-04-04T01:23:03.029Z,98.50
2023-04-04T01:25:34.883Z,98.20
2023-04-04T01:30:36.331Z,99.90
2023-04-04T01:33:28.073Z,91.80
2023-04-04T01:36:08.539Z,91.80
2023-04-04T01:39:08.031Z,91.80
2023-04-04T01:41:36.295Z,91.90
2023-04-04T01:44:04.263Z,91.90
2023-04-04T01:46:32.505Z,92.20
2023-04-04T01:49:00.414Z,93.00
2023-04-04T01:51:27.897Z,93.80
2023-04-04T01:53:55.254Z,92.30
2023-04-04T01:56:23.020Z,93.10
2023-04-04T01:58:50.682Z,93.90
2023-04-04T02:01:18.082Z,94.10
2023-04-04T02:03:45.490Z,97.40
2023-04-04T02:06:13.646Z,93.50
2023-04-04T02:08:41.495Z,98.10
2023-04-04T02:11:08.795Z,95.10
2023-04-04T02:13:41.395Z,95.80
2023-04-04T02:16:08.947Z,98.70
2023-04-04T02:18:37.096Z,95.80
2023-04-04T02:21:04.626Z,93.30
2023-04-04T02:23:32.050Z,95.30
2023-04-04T02:25:59.716Z,94.40
2023-04-04T02:28:28.911Z,92.10
2023-04-04T02:30:56.892Z,94.10
2023-04-04T02:33:24.356Z,92.80
2023-04-04T02:35:51.883Z,92.90
2023-04-04T02:38:19.306Z,92.80
2023-04-04T02:40:46.792Z,92.80
2023-04-04T02:43:14.269Z,92.50
2023-04-04T02:45:41.894Z,94.00
2023-04-04T02:48:10.648Z,92.40
2023-04-04T02:50:39.413Z,94.00
2023-04-04T02:53:07.153Z,92.80
2023-04-04T02:55:34.580Z,93.40
2023-04-04T02:58:02.085Z,92.90
2023-04-04T03:00:29.485Z,92.90
2023-04-04T03:02:58.295Z,93.60
2023-04-04T03:05:27.027Z,94.70
2023-04-04T03:07:58.240Z,93.70
2023-04-04T03:10:29.949Z,93.60
2023-04-04T03:12:58.076Z,99.90
2023-04-04T03:15:26.737Z,93.20
2023-04-04T03:18:00.290Z,93.00
2023-04-04T03:20:28.271Z,93.90
2023-04-04T03:22:56.234Z,93.40
2023-04-04T03:25:23.708Z,99.40
2023-04-04T03:27:51.283Z,93.40
2023-04-04T03:30:18.639Z,93.70
2023-04-04T03:32:46.218Z,93.80
2023-04-04T03:35:13.697Z,93.30
2023-04-04T03:37:43.487Z,93.40
2023-04-04T03:40:11.529Z,94.00
2023-04-04T03:42:38.931Z,94.80
2023-04-04T03:45:07.454Z,93.90
2023-04-04T03:47:35.062Z,95.00
2023-04-04T03:50:02.644Z,96.40
2023-04-04T03:52:30.176Z,95.00
2023-04-04T03:54:57.481Z,94.20
2023-04-04T03:57:24.890Z,95.10
2023-04-04T03:59:52.354Z,95.30
2023-04-04T04:02:19.802Z,99.90
2023-04-04T04:07:14.567Z,94.10
2023-04-04T04:09:42.179Z,94.30
2023-04-04T04:12:09.655Z,99.90
2023-04-04T04:14:37.544Z,94.50
2023-04-04T04:17:05.818Z,94.10
2023-04-04T04:19:33.631Z,94.10
2023-04-04T04:22:01.335Z,94.10
2023-04-04T04:24:28.958Z,94.10
2023-04-04T04:26:56.477Z,94.00
2023-04-04T04:29:23.940Z,93.60
2023-04-04T04:31:53.099Z,93.90
2023-04-04T04:34:20.808Z,94.00
2023-04-04T04:36:48.352Z,99.90
2023-04-04T04:39:15.844Z,93.50
2023-04-04T04:41:43.231Z,93.50
2023-04-04T04:44:10.748Z,93.80
2023-04-04T04:46:38.240Z,93.30
2023-04-04T04:49:05.626Z,93.50
2023-04-04T04:51:33.364Z,93.40
2023-04-04T04:54:00.925Z,93.50
2023-04-04T04:56:28.401Z,94.00
2023-04-04T04:58:55.852Z,93.20
2023-04-04T05:01:24.543Z,93.50
2023-04-04T05:03:53.332Z,94.00
2023-04-04T05:06:21.794Z,93.10
2023-04-04T05:08:49.822Z,93.30
2023-04-04T05:11:17.217Z,93.80
2023-04-04T05:13:45.295Z,93.40
2023-04-04T05:16:13.762Z,93.00
2023-04-04T05:18:41.604Z,93.30
2023-04-04T05:21:09.414Z,92.80
2023-04-04T05:23:36.918Z,93.10
2023-04-04T05:26:04.493Z,92.50
2023-04-04T05:28:32.006Z,93.40
2023-04-04T05:30:59.539Z,92.70
2023-04-04T05:33:27.713Z,92.80
2023-04-04T05:35:55.507Z,92.60
2023-04-04T05:38:23.605Z,92.90
2023-04-04T05:40:53.237Z,92.60
2023-04-04T05:43:21.179Z,92.80
2023-04-04T05:45:48.921Z,93.30
2023-04-04T05:48:16.874Z,92.70
2023-04-04T05:50:47.470Z,92.30
2023-04-04T05:53:16.498Z,92.60
2023-04-04T05:55:44.113Z,93.50
2023-04-04T05:58:12.622Z,92.90
2023-04-04T06:00:41.719Z,92.90
2023-04-04T06:03:09.695Z,92.40
2023-04-04T06:05:43.795Z,92.60
2023-04-04T06:08:11.566Z,91.90
2023-04-04T06:10:42.444Z,91.70
2023-04-04T06:13:10.239Z,92.60
2023-04-04T06:15:40.874Z,92.40
2023-04-04T06:18:08.470Z,91.90
2023-04-04T06:20:36.454Z,91.90
2023-04-04T06:23:04.911Z,92.40
2023-04-04T06:25:32.886Z,92.10
2023-04-04T06:28:01.125Z,93.20
2023-04-04T06:30:29.615Z,92.10
2023-04-04T06:32:58.067Z,92.00
2023-04-04T06:35:32.145Z,92.50
2023-04-04T06:38:01.674Z,92.00
2023-04-04T06:40:29.818Z,91.70
2023-04-04T06:43:00.806Z,91.50
2023-04-04T06:45:29.022Z,92.00
2023-04-04T06:48:12.874Z,92.10
2023-04-04T06:50:41.296Z,91.70
2023-04-04T06:53:09.954Z,91.20
2023-04-04T06:55:37.518Z,91.00
2023-04-04T06:58:07.487Z,91.80
2023-04-04T07:00:37.346Z,91.10
2023-04-04T07:03:05.825Z,91.40
2023-04-04T07:05:33.379Z,90.30
2023-04-04T07:08:01.023Z,90.90
2023-04-04T07:10:28.765Z,90.00
2023-04-04T07:12:56.285Z,91.30
2023-04-04T07:15:24.571Z,91.50
2023-04-04T07:17:52.427Z,91.50
2023-04-04T07:20:20.669Z,90.30
2023-04-04T07:23:04.529Z,90.60
2023-04-04T07:25:32.134Z,89.80
2023-04-04T07:28:10.011Z,90.90
2023-04-04T07:30:40.373Z,89.70
2023-04-04T07:33:08.375Z,90.80
2023-04-04T07:35:36.606Z,90.20
2023-04-04T07:38:04.829Z,88.60
2023-04-04T07:40:32.690Z,89.70
2023-04-04T07:43:12.451Z,90.30
2023-04-04T07:45:40.031Z,89.30
2023-04-04T07:48:07.683Z,90.00
2023-04-04T07:50:35.223Z,89.90
2023-04-04T07:53:03.002Z,89.40
2023-04-04T07:55:30.874Z,89.20
2023-04-04T07:58:00.150Z,89.10
2023-04-04T08:00:27.883Z,88.90
2023-04-04T08:02:56.844Z,87.30
2023-04-04T08:05:24.812Z,87.30
2023-04-04T08:07:52.864Z,89.20
2023-04-04T08:10:21.846Z,87.70
2023-04-04T08:12:49.820Z,87.70
2023-04-04T08:15:17.503Z,87.10
2023-04-04T08:17:46.026Z,87.00
2023-04-04T08:20:14.014Z,87.30
2023-04-04T08:22:43.010Z,87.40
2023-04-04T08:25:11.997Z,86.10
2023-04-04T08:27:45.192Z,86.40
2023-04-04T08:30:15.983Z,87.80
2023-04-04T08:32:47.641Z,88.10
2023-04-04T08:35:15.281Z,87.30
2023-04-04T08:37:47.185Z,88.00
2023-04-04T08:40:16.043Z,84.10
2023-04-04T08:43:16.745Z,84.50
2023-04-04T08:45:47.960Z,83.30
2023-04-04T08:48:18.552Z,84.20
2023-04-04T08:50:47.265Z,99.90
2023-04-04T08:53:17.297Z,81.80
2023-04-04T08:55:44.795Z,81.70
2023-04-04T08:58:12.638Z,81.80
2023-04-04T09:00:43.520Z,81.30
2023-04-04T09:03:22.265Z,80.20
2023-04-04T09:05:50.048Z,79.40
2023-04-04T09:08:18.944Z,80.20
2023-04-04T09:10:47.443Z,81.20
2023-04-04T09:13:16.887Z,80.50
2023-04-04T09:15:58.174Z,81.10
2023-04-04T09:18:26.245Z,80.60
2023-04-04T09:20:55.170Z,81.70
2023-04-04T09:23:29.275Z,81.60
2023-04-04T09:26:04.357Z,80.30
2023-04-04T09:28:35.158Z,81.00
2023-04-04T09:31:11.712Z,80.10
2023-04-04T09:33:44.041Z,80.80
2023-04-04T09:36:13.886Z,80.70
2023-04-04T09:38:51.919Z,80.10
2023-04-04T09:41:33.832Z,79.10
2023-04-04T09:44:05.722Z,79.60
2023-04-04T09:46:41.582Z,80.40
2023-04-04T09:49:26.542Z,78.80
2023-04-04T09:51:57.194Z,79.50
2023-04-04T09:54:29.638Z,78.60
2023-04-04T09:56:59.799Z,79.60
2023-04-04T09:59:32.646Z,78.70
2023-04-04T10:02:03.071Z,77.30
2023-04-04T10:07:01.908Z,76.90
2023-04-04T10:09:37.316Z,75.90
2023-04-04T10:12:20.041Z,73.90
2023-04-04T10:18:42.254Z,71.90
2023-04-04T10:21:15.730Z,70.90
2023-04-04T10:23:47.537Z,70.20
2023-04-04T10:26:16.158Z,70.20
2023-04-04T10:28:47.352Z,70.20
2023-04-04T10:31:26.152Z,70.50
2023-04-04T10:34:30.323Z,69.70
2023-04-04T10:37:10.114Z,68.30
2023-04-04T10:39:53.992Z,68.10
2023-04-04T10:42:23.729Z,67.80
2023-04-04T10:44:51.983Z,68.00
2023-04-04T10:47:23.053Z,68.00
2023-04-04T10:49:52.334Z,67.10
2023-04-04T10:52:22.609Z,68.60
2023-04-04T10:54:56.972Z,68.30
2023-04-04T10:57:25.424Z,68.50
2023-04-04T11:00:08.803Z,68.60
2023-04-04T11:02:51.625Z,66.70
2023-04-04T11:05:27.716Z,64.20
2023-04-04T11:08:14.610Z,64.10
2023-04-04T11:10:43.907Z,62.40
2023-04-04T11:13:18.498Z,62.70
2023-04-04T11:16:05.972Z,63.70
2023-04-04T11:18:39.537Z,60.70
2023-04-04T11:21:08.625Z,61.90
2023-04-04T11:23:59.028Z,61.10
2023-04-04T11:26:26.941Z,61.10
2023-04-04T11:29:08.383Z,60.40
2023-04-04T11:31:45.654Z,60.50
2023-04-04T11:34:14.742Z,60.40
2023-04-04T11:36:43.233Z,60.10
2023-04-04T11:39:15.110Z,59.60
2023-04-04T11:42:06.862Z,58.40
2023-04-04T11:44:41.088Z,58.60
2023-04-04T11:47:12.445Z,60.20
2023-04-04T11:49:43.182Z,60.90
2023-04-04T11:52:16.930Z,58.80
2023-04-04T11:54:46.649Z,58.80
2023-04-04T11:57:14.918Z,58.10
2023-04-04T11:59:44.617Z,60.40
2023-04-04T12:02:13.723Z,60.70
2023-04-04T12:04:44.527Z,60.60
2023-04-04T12:07:14.033Z,62.10
2023-04-04T12:09:42.493Z,61.90
2023-04-04T12:12:16.821Z,62.30
2023-04-04T12:14:44.740Z,60.30
2023-04-04T12:17:12.280Z,60.00
2023-04-04T12:19:40.896Z,60.40
2023-04-04T12:22:08.701Z,60.40
2023-04-04T12:24:37.308Z,59.70
2023-04-04T12:27:06.452Z,60.80
2023-04-04T12:29:38.259Z,60.00
2023-04-04T12:32:06.777Z,60.30
2023-04-04T12:34:36.443Z,61.10
2023-04-04T12:37:04.749Z,60.00
2023-04-04T12:39:32.546Z,59.50
2023-04-04T12:42:01.690Z,59.60
2023-04-04T12:44:37.171Z,59.80
2023-04-04T12:47:06.946Z,59.80
2023-04-04T12:49:43.148Z,60.40
2023-04-04T12:52:20.750Z,60.70
2023-04-04T12:54:56.175Z,59.70
2023-04-04T12:57:34.960Z,58.80
2023-04-04T13:00:04.736Z,59.50
2023-04-04T13:02:35.201Z,57.40
2023-04-04T13:05:04.331Z,57.80
2023-04-04T13:07:34.970Z,58.40
2023-04-04T13:10:04.869Z,58.40
2023-04-04T13:12:56.902Z,58.00
2023-04-04T13:15:45.084Z,59.10
2023-04-04T13:18:22.328Z,57.50
2023-04-04T13:20:54.345Z,58.40
2023-04-04T13:23:23.816Z,58.60
2023-04-04T13:25:51.465Z,58.10
2023-04-04T13:28:19.030Z,58.40
2023-04-04T13:30:49.905Z,58.60
2023-04-04T13:33:18.405Z,57.60
2023-04-04T13:35:46.963Z,57.10
2023-04-04T13:38:14.625Z,57.80
2023-04-04T13:40:42.436Z,57.90
2023-04-04T13:43:11.676Z,57.90
2023-04-04T13:45:39.481Z,57.20
2023-04-04T13:48:07.310Z,57.30
2023-04-04T13:50:36.962Z,57.50
2023-04-04T13:53:04.833Z,57.70
2023-04-04T13:55:32.426Z,57.80
2023-04-04T13:57:59.795Z,56.90
2023-04-04T14:00:27.242Z,57.40
2023-04-04T14:02:57.218Z,56.20
2023-04-04T14:05:25.155Z,57.40
2023-04-04T14:07:52.595Z,56.20
2023-04-04T14:10:20.270Z,56.70
2023-04-04T14:12:47.724Z,57.60
2023-04-04T14:15:15.198Z,57.60
2023-04-04T14:17:43.503Z,57.40
2023-04-04T14:20:12.176Z,58.10
2023-04-04T14:22:39.685Z,57.00
2023-04-04T14:25:07.439Z,57.00
2023-04-04T14:27:34.917Z,57.70
2023-04-04T14:30:02.447Z,57.90
2023-04-04T14:32:30.170Z,57.40
2023-04-04T14:34:57.585Z,57.30
2023-04-04T14:37:24.985Z,58.90
2023-04-04T14:39:52.727Z,58.60
2023-04-04T14:42:20.125Z,59.10
2023-04-04T14:44:47.591Z,58.50
2023-04-04T14:47:15.691Z,57.30
2023-04-04T14:49:43.609Z,58.00
2023-04-04T14:52:11.133Z,58.40
2023-04-04T14:54:38.790Z,57.80
2023-04-04T14:57:07.353Z,58.50
2023-04-04T14:59:34.972Z,58.40
2023-04-04T15:02:02.346Z,58.20
2023-04-04T15:04:29.779Z,58.80
2023-04-04T15:07:00.900Z,58.90
2023-04-04T15:09:30.531Z,58.60
2023-04-04T15:12:01.910Z,58.60
2023-04-04T15:14:29.379Z,58.90
2023-04-04T15:16:56.707Z,59.00
2023-04-04T15:19:24.211Z,58.90
2023-04-04T15:21:51.984Z,59.70
2023-04-04T15:24:19.416Z,59.20
2023-04-04T15:26:46.989Z,59.90
2023-04-04T15:29:15.809Z,59.60
2023-04-04T15:31:58.809Z,59.60
2023-04-04T15:34:26.400Z,60.00
2023-04-04T15:36:54.342Z,59.30
2023-04-04T15:39:21.956Z,61.00
2023-04-04T15:41:49.393Z,60.40
2023-04-04T15:44:18.099Z,60.20
2023-04-04T15:46:45.678Z,60.80
2023-04-04T15:49:12.993Z,60.30
2023-04-04T15:51:43.001Z,61.30
2023-04-04T15:54:10.956Z,61.40
2023-04-04T15:56:41.046Z,60.90
2023-04-04T15:59:10.593Z,60.90
2023-04-04T16:01:38.964Z,61.20
2023-04-04T16:04:06.396Z,61.20
2023-04-04T16:06:33.766Z,60.00
2023-04-04T16:09:01.436Z,61.10
2023-04-04T16:11:29.018Z,62.30
2023-04-04T16:13:56.321Z,62.20
2023-04-04T16:16:24.771Z,61.70
2023-04-04T16:18:52.265Z,62.00
2023-04-04T16:21:19.684Z,63.30
2023-04-04T16:23:47.050Z,63.20
2023-04-04T16:26:14.543Z,63.70
2023-04-04T16:28:41.969Z,63.90
2023-04-04T16:31:09.460Z,63.90
2023-04-04T16:33:36.797Z,64.20
2023-04-04T16:36:04.482Z,63.60
2023-04-04T16:38:31.850Z,64.70
2023-04-04T16:41:03.091Z,64.10
2023-04-04T16:43:30.963Z,64.20
2023-04-04T16:45:58.650Z,64.70
2023-04-04T16:48:26.077Z,64.80
2023-04-04T16:50:55.080Z,65.10
2023-04-04T16:53:22.506Z,64.80
2023-04-04T16:55:50.074Z,64.70
2023-04-04T16:58:17.555Z,65.40
2023-04-04T17:00:45.201Z,65.00
2023-04-04T17:03:12.780Z,64.30
2023-04-04T17:05:40.493Z,65.90
2023-04-04T17:08:07.934Z,66.30
2023-04-04T17:10:37.543Z,66.50
2023-04-04T17:13:06.556Z,66.70
2023-04-04T17:15:33.989Z,67.50
2023-04-04T17:18:01.633Z,68.80
2023-04-04T17:20:30.974Z,68.50
2023-04-04T17:22:59.883Z,69.30
2023-04-04T17:25:29.378Z,68.10
2023-04-04T17:27:57.434Z,69.60
2023-04-04T17:30:24.905Z,69.20
2023-04-04T17:32:54.470Z,69.10
2023-04-04T17:35:22.576Z,68.80
2023-04-04T17:37:50.049Z,69.70
2023-04-04T17:40:17.640Z,69.10
2023-04-04T17:42:45.225Z,69.00
2023-04-04T17:45:12.678Z,70.30
2023-04-04T17:47:40.019Z,70.00
2023-04-04T17:50:07.884Z,70.70
2023-04-04T17:52:35.366Z,70.00
2023-04-04T17:55:03.629Z,70.40
2023-04-04T17:57:31.149Z,71.30
2023-04-04T17:59:58.492Z,70.30
2023-04-04T18:02:25.987Z,70.10
2023-04-04T18:04:53.443Z,70.60
2023-04-04T18:07:21.163Z,69.50
2023-04-04T18:09:48.620Z,71.10
2023-04-04T18:12:16.345Z,70.00
2023-04-04T18:14:43.892Z,71.00
2023-04-04T18:17:11.321Z,71.20
2023-04-04T18:19:39.787Z,71.90
2023-04-04T18:22:07.888Z,70.90
2023-04-04T18:24:35.465Z,70.30
2023-04-04T18:27:03.017Z,70.20
2023-04-04T18:29:32.713Z,70.60
2023-04-04T18:32:01.998Z,70.00
2023-04-04T18:34:30.030Z,70.30
2023-04-04T18:36:57.798Z,71.70
2023-04-04T18:39:25.170Z,71.10
2023-04-04T18:41:52.647Z,70.70
2023-04-04T18:44:21.435Z,70.80
2023-04-04T18:46:48.845Z,71.20
2023-04-04T18:49:16.350Z,70.50
2023-04-04T18:51:43.837Z,71.10
2023-04-04T18:54:11.426Z,72.00
2023-04-04T18:56:39.059Z,72.50
2023-04-04T18:59:06.491Z,71.70
2023-04-04T19:01:35.949Z,72.10
2023-04-04T19:04:04.233Z,73.10
2023-04-04T19:06:33.353Z,72.80
2023-04-04T19:09:04.532Z,72.50
2023-04-04T19:11:32.584Z,72.10
2023-04-04T19:14:00.266Z,72.30
2023-04-04T19:16:27.936Z,72.40
2023-04-04T19:18:55.690Z,72.60
2023-04-04T19:21:23.103Z,73.50
2023-04-04T19:23:50.422Z,74.10
2023-04-04T19:26:18.350Z,73.60
2023-04-04T19:28:46.557Z,73.10
2023-04-04T19:31:22.187Z,73.50
2023-04-04T19:33:51.399Z,73.30
2023-04-04T19:36:19.633Z,73.60
2023-04-04T19:38:49.263Z,73.10
2023-04-04T19:41:17.847Z,73.10
2023-04-04T19:43:47.743Z,73.30
2023-04-04T19:46:17.522Z,73.40
2023-04-04T19:48:50.961Z,73.30
2023-04-04T19:51:18.310Z,73.20
2023-04-04T19:53:47.924Z,73.30
2023-04-04T19:56:17.265Z,73.60
2023-04-04T19:58:45.375Z,73.90
2023-04-04T20:01:23.088Z,73.10
2023-04-04T20:03:50.940Z,74.30
2023-04-04T20:06:29.104Z,74.00
2023-04-04T20:08:58.849Z,73.90
2023-04-04T20:11:30.902Z,74.90
2023-04-04T20:14:00.703Z,74.50
2023-04-04T20:16:29.513Z,74.00
2023-04-04T20:18:59.250Z,75.10
2023-04-04T20:21:31.572Z,74.90
2023-04-04T20:24:05.148Z,75.70
2023-04-04T20:26:57.020Z,74.60
2023-04-04T20:29:29.684Z,75.10
2023-04-04T20:32:02.005Z,75.20
2023-04-04T20:34:46.109Z,74.70
2023-04-04T20:37:29.318Z,76.60
2023-04-04T20:40:09.483Z,75.70
2023-04-04T20:42:41.504Z,76.40
2023-04-04T20:45:09.051Z,75.90
2023-04-04T20:47:50.404Z,76.30
2023-04-04T20:50:18.057Z,75.80
2023-04-04T20:52:56.515Z,76.30
2023-04-04T20:55:26.134Z,75.80
2023-04-04T20:57:56.836Z,76.30
2023-04-04T21:00:30.448Z,75.50
2023-04-04T21:03:07.614Z,76.20
2023-04-04T21:05:38.631Z,76.50
2023-04-04T21:08:32.255Z,76.10
2023-04-04T21:11:00.028Z,75.50
2023-04-04T21:13:47.358Z,76.30
2023-04-04T21:16:22.016Z,76.20
2023-04-04T21:18:53.942Z,76.30
2023-04-04T21:21:21.452Z,77.80
2023-04-04T21:23:50.013Z,77.70
2023-04-04T21:26:32.958Z,76.50
2023-04-04T21:29:20.704Z,77.20
2023-04-04T21:31:49.823Z,76.40
2023-04-04T21:34:20.650Z,77.00
2023-04-04T21:36:49.669Z,77.20
2023-04-04T21:39:25.679Z,77.80
2023-04-04T21:42:04.102Z,77.40
2023-04-04T21:44:32.862Z,77.80
2023-04-04T21:47:00.431Z,79.10
2023-04-04T21:49:28.687Z,79.00
2023-04-04T21:51:56.165Z,80.20
2023-04-04T21:54:23.943Z,79.50
2023-04-04T21:56:51.496Z,80.70
2023-04-04T21:59:19.028Z,79.90
2023-04-04T22:01:46.596Z,80.00
2023-04-04T22:04:14.145Z,79.80
2023-04-04T22:06:41.703Z,80.20
2023-04-04T22:09:09.393Z,81.40
2023-04-04T22:11:42.900Z,81.20
2023-04-04T22:14:10.268Z,81.30
2023-04-04T22:16:40.388Z,81.00
2023-04-04T22:19:11.496Z,81.30
2023-04-04T22:21:39.627Z,80.90
2023-04-04T22:24:10.170Z,81.20
2023-04-04T22:26:37.915Z,80.20
2023-04-04T22:29:05.588Z,82.70
2023-04-04T22:31:37.659Z,82.10
2023-04-04T22:34:06.453Z,81.60
2023-04-04T22:36:34.552Z,81.70
2023-04-04T22:39:03.089Z,81.70
2023-04-04T22:41:30.591Z,84.50
2023-04-04T22:43:59.685Z,84.70
2023-04-04T22:46:29.714Z,84.30
2023-04-04T22:49:05.978Z,85.20
2023-04-04T22:51:45.691Z,84.80
2023-04-04T22:54:15.208Z,84.60
2023-04-04T22:56:43.010Z,84.60
2023-04-04T22:59:11.433Z,85.00
2023-04-04T23:01:39.764Z,85.20
2023-04-04T23:04:07.431Z,83.80
2023-04-04T23:06:36.409Z,84.30
2023-04-04T23:09:04.366Z,86.20
2023-04-04T23:11:31.945Z,86.70
2023-04-04T23:14:00.477Z,88.10
2023-04-04T23:16:29.117Z,90.30
2023-04-04T23:18:57.481Z,91.20
2023-04-04T23:21:25.216Z,90.90
2023-04-04T23:23:56.511Z,91.00
2023-04-04T23:26:24.166Z,92.30
2023-04-04T23:28:51.599Z,92.90
2023-04-04T23:31:20.430Z,93.20
2023-04-04T23:33:47.955Z,93.40
2023-04-04T23:36:16.016Z,93.40
2023-04-04T23:38:43.788Z,93.90
2023-04-04T23:41:12.241Z,94.40
2023-04-04T23:43:40.231Z,94.40
2023-04-04T23:48:52.406Z,95.40
2023-04-04T23:51:19.746Z,95.30
2023-04-04T23:53:47.227Z,95.70
2023-04-04T23:56:14.786Z,95.50
2023-04-04T23:58:42.158Z,95.70
